Aérodrome :
LOGIN :

S'inscrire | Disclaimer

   EN    FR    IT 

 










Légende :    VFR   VFR Marginal   IFR   IFR Intensif   IFR Très Intensif
Visi : 
Plafond : 
>= 8 km
>= 3000ft
5 à 8 km
1000 à 3000 ft
1500m à 5 km
500 à 1000 ft
800 à 1500m
200 à 500 ft
< 800m
< 200 ft
Symboles :   Orages  Brouillard  Fortes neiges  Fortes précipitations  Vent > 20 kt
SIGMETs :   Divers  Orages  Givrage  Turbulence  Onde Orograph.  Cendres Volcan.







- Altitude de l'aérodrome : 13 ft
- Code IATA : CEQ
- Voir les cartes d'approche


LFMD - Cannes Mandelieu

DERNIER METAR :
  • 251130Z AUTO 17006KT 140V200 CAVOK 26/14 Q1015 NOSIG

METARs EXPIRÉS :
  • 251100Z AUTO 16006KT 090V210 CAVOK 25/14 Q1015 NOSIG
  • 251030Z AUTO 17005KT 130V210 CAVOK 24/15 Q1015 NOSIG
  • 251000Z AUTO 14005KT 070V190 CAVOK 24/14 Q1015 NOSIG
  • 250930Z AUTO 17006KT 130V200 CAVOK 24/14 Q1014 NOSIG
  • 250900Z AUTO 17005KT 120V200 CAVOK 24/14 Q1014 NOSIG

TAF TAF LFMD
Valide du 25 à 09h jusqu'au 26 à 09h UTC


250800Z 2509/2609 18010KT CAVOK
BECMG 2518/2520 36006KT
BECMG 2608/2609 12010KT
ATIS : +33 4 93 48 73 23
Pas de NOTAMs connus pour ce terrain.
1 SIGMET publié pour la FIR Marseille (LFMM) :
 
Orages noyés dans la masse
LFMM SIGMET 1 VALID 251200/251300 LFPW
LFMM MARSEILLE FIR/UIR EMBD TS OBS AT 1200Z S OF N4230 AND E OF E00830 TOP FL240 STNR NC=



MET'MAP, la Météo Aéronautique d'un coup d'oeil ! - Copyright ORBIFLY Décembre 2007 - Disclaimer

ORBIFLY MET'MAP TEAM :

Programmation & Développement : Alexandra Zaïnal
Conception & Développement : Baudouin d'Aumeries
Co-Programmation & Développement : Marc-Olivier Méhu
Soutien technique & logistique : Manuel Goepfert

Contact : metmap@orbifly.com




SOURCES & CREDITS :

   NOAA